sensor_id;sensor_type;location;lat;lon;timestamp;temperature;humidity
49441;DHT22;35317;51.978;6.296;2024-01-16T00:03:42;1.20;99.90
49441;DHT22;35317;51.978;6.296;2024-01-16T00:08:43;1.20;99.90
49441;DHT22;35317;51.978;6.296;2024-01-16T00:13:44;1.20;99.90
49441;DHT22;35317;51.978;6.296;2024-01-16T00:18:45;1.30;99.90
49441;DHT22;35317;51.978;6.296;2024-01-16T00:23:46;1.30;99.90
49441;DHT22;35317;51.978;6.296;2024-01-16T00:28:46;1.20;99.90
49441;DHT22;35317;51.978;6.296;2024-01-16T00:33:47;1.10;99.90
49441;DHT22;35317;51.978;6.296;2024-01-16T00:38:48;1.10;99.90
49441;DHT22;35317;51.978;6.296;2024-01-16T00:43:49;1.00;99.90
49441;DHT22;35317;51.978;6.296;2024-01-16T00:48:50;0.90;99.90
49441;DHT22;35317;51.978;6.296;2024-01-16T00:53:50;0.90;99.90
49441;DHT22;35317;51.978;6.296;2024-01-16T00:58:51;0.80;99.90
49441;DHT22;35317;51.978;6.296;2024-01-16T01:03:52;0.80;99.90
49441;DHT22;35317;51.978;6.296;2024-01-16T01:08:53;0.80;99.90
49441;DHT22;35317;51.978;6.296;2024-01-16T01:13:53;0.80;99.90
49441;DHT22;35317;51.978;6.296;2024-01-16T01:18:54;0.90;99.90
49441;DHT22;35317;51.978;6.296;2024-01-16T01:23:55;0.90;99.90
49441;DHT22;35317;51.978;6.296;2024-01-16T01:28:56;1.00;99.90
49441;DHT22;35317;51.978;6.296;2024-01-16T01:33:56;1.10;99.90
49441;DHT22;35317;51.978;6.296;2024-01-16T01:38:57;1.10;99.90
49441;DHT22;35317;51.978;6.296;2024-01-16T01:43:58;1.20;99.90
49441;DHT22;35317;51.978;6.296;2024-01-16T01:48:59;1.20;99.90
49441;DHT22;35317;51.978;6.296;2024-01-16T01:54:00;1.30;99.90
49441;DHT22;35317;51.978;6.296;2024-01-16T01:59:02;1.30;99.90
49441;DHT22;35317;51.978;6.296;2024-01-16T02:04:04;1.20;99.90
49441;DHT22;35317;51.978;6.296;2024-01-16T02:09:05;1.10;99.90
49441;DHT22;35317;51.978;6.296;2024-01-16T02:14:07;1.10;99.90
49441;DHT22;35317;51.978;6.296;2024-01-16T02:19:09;1.00;99.90
49441;DHT22;35317;51.978;6.296;2024-01-16T02:24:10;0.90;99.90
49441;DHT22;35317;51.978;6.296;2024-01-16T02:29:12;0.90;99.90
49441;DHT22;35317;51.978;6.296;2024-01-16T02:34:13;0.90;99.90
49441;DHT22;35317;51.978;6.296;2024-01-16T02:39:13;0.90;99.90
49441;DHT22;35317;51.978;6.296;2024-01-16T02:44:15;0.90;99.90
49441;DHT22;35317;51.978;6.296;2024-01-16T02:49:15;0.90;99.90
49441;DHT22;35317;51.978;6.296;2024-01-16T02:54:17;0.90;99.90
49441;DHT22;35317;51.978;6.296;2024-01-16T02:59:18;1.00;99.90
49441;DHT22;35317;51.978;6.296;2024-01-16T03:04:18;1.00;99.90
49441;DHT22;35317;51.978;6.296;2024-01-16T03:09:20;1.10;99.90
49441;DHT22;35317;51.978;6.296;2024-01-16T03:14:21;1.10;99.90
49441;DHT22;35317;51.978;6.296;2024-01-16T03:19:22;1.20;99.90
49441;DHT22;35317;51.978;6.296;2024-01-16T03:24:22;1.30;99.90
49441;DHT22;35317;51.978;6.296;2024-01-16T03:29:23;1.30;99.90
49441;DHT22;35317;51.978;6.296;2024-01-16T03:34:24;1.40;99.90
49441;DHT22;35317;51.978;6.296;2024-01-16T03:39:25;1.50;99.90
49441;DHT22;35317;51.978;6.296;2024-01-16T03:44:25;1.50;99.90
49441;DHT22;35317;51.978;6.296;2024-01-16T03:49:26;1.50;99.90
49441;DHT22;35317;51.978;6.296;2024-01-16T03:54:27;1.60;99.90
49441;DHT22;35317;51.978;6.296;2024-01-16T03:59:28;1.60;99.90
49441;DHT22;35317;51.978;6.296;2024-01-16T04:04:29;1.60;99.90
49441;DHT22;35317;51.978;6.296;2024-01-16T04:09:29;1.70;99.90
49441;DHT22;35317;51.978;6.296;2024-01-16T04:14:30;1.70;99.90
49441;DHT22;35317;51.978;6.296;2024-01-16T04:19:31;1.70;99.90
49441;DHT22;35317;51.978;6.296;2024-01-16T04:24:34;1.70;99.90
49441;DHT22;35317;51.978;6.296;2024-01-16T04:29:36;1.70;99.90
49441;DHT22;35317;51.978;6.296;2024-01-16T04:34:37;1.70;99.90
49441;DHT22;35317;51.978;6.296;2024-01-16T04:39:38;1.70;99.90
49441;DHT22;35317;51.978;6.296;2024-01-16T04:44:39;1.70;99.90
49441;DHT22;35317;51.978;6.296;2024-01-16T04:49:42;1.70;99.90
49441;DHT22;35317;51.978;6.296;2024-01-16T04:54:43;1.70;99.90
49441;DHT22;35317;51.978;6.296;2024-01-16T04:59:45;1.80;99.90
49441;DHT22;35317;51.978;6.296;2024-01-16T05:04:46;1.80;99.90
49441;DHT22;35317;51.978;6.296;2024-01-16T05:09:49;1.80;99.90
49441;DHT22;35317;51.978;6.296;2024-01-16T05:14:50;1.70;99.90
49441;DHT22;35317;51.978;6.296;2024-01-16T05:19:51;1.70;99.90
49441;DHT22;35317;51.978;6.296;2024-01-16T05:24:52;1.70;99.90
49441;DHT22;35317;51.978;6.296;2024-01-16T05:29:54;1.70;99.90
49441;DHT22;35317;51.978;6.296;2024-01-16T05:34:55;1.70;99.90
49441;DHT22;35317;51.978;6.296;2024-01-16T05:39:56;1.70;99.90
49441;DHT22;35317;51.978;6.296;2024-01-16T05:44:56;1.70;99.90
49441;DHT22;35317;51.978;6.296;2024-01-16T05:49:57;1.70;99.90
49441;DHT22;35317;51.978;6.296;2024-01-16T05:54:58;1.60;99.90
49441;DHT22;35317;51.978;6.296;2024-01-16T06:00:00;1.60;99.90
49441;DHT22;35317;51.978;6.296;2024-01-16T06:05:06;1.60;99.90
49441;DHT22;35317;51.978;6.296;2024-01-16T06:10:07;1.60;99.90
49441;DHT22;35317;51.978;6.296;2024-01-16T06:15:08;1.60;99.90
49441;DHT22;35317;51.978;6.296;2024-01-16T06:20:11;1.60;99.90
49441;DHT22;35317;51.978;6.296;2024-01-16T06:25:12;1.60;99.90
49441;DHT22;35317;51.978;6.296;2024-01-16T06:30:13;1.60;99.90
49441;DHT22;35317;51.978;6.296;2024-01-16T06:35:15;1.70;99.90
49441;DHT22;35317;51.978;6.296;2024-01-16T06:40:16;1.70;99.90
49441;DHT22;35317;51.978;6.296;2024-01-16T06:45:17;1.70;99.90
49441;DHT22;35317;51.978;6.296;2024-01-16T06:50:19;1.70;99.90
49441;DHT22;35317;51.978;6.296;2024-01-16T06:55:20;1.70;99.90
49441;DHT22;35317;51.978;6.296;2024-01-16T07:00:21;1.70;99.90
49441;DHT22;35317;51.978;6.296;2024-01-16T07:05:23;1.70;99.90
49441;DHT22;35317;51.978;6.296;2024-01-16T07:10:24;1.60;99.90
49441;DHT22;35317;51.978;6.296;2024-01-16T07:15:25;1.60;99.90
49441;DHT22;35317;51.978;6.296;2024-01-16T07:20:25;1.50;99.90
49441;DHT22;35317;51.978;6.296;2024-01-16T07:25:26;1.50;99.90
49441;DHT22;35317;51.978;6.296;2024-01-16T07:30:27;1.50;99.90
49441;DHT22;35317;51.978;6.296;2024-01-16T07:35:28;1.50;99.90
49441;DHT22;35317;51.978;6.296;2024-01-16T07:40:28;1.50;99.90
49441;DHT22;35317;51.978;6.296;2024-01-16T07:45:29;1.50;99.90
49441;DHT22;35317;51.978;6.296;2024-01-16T07:50:30;1.60;99.90
49441;DHT22;35317;51.978;6.296;2024-01-16T07:55:31;1.60;99.90
49441;DHT22;35317;51.978;6.296;2024-01-16T08:00:31;1.60;99.90
49441;DHT22;35317;51.978;6.296;2024-01-16T08:05:32;1.70;99.90
49441;DHT22;35317;51.978;6.296;2024-01-16T08:10:33;1.70;99.90
49441;DHT22;35317;51.978;6.296;2024-01-16T08:15:34;1.80;99.90
49441;DHT22;35317;51.978;6.296;2024-01-16T08:20:35;1.80;99.90
49441;DHT22;35317;51.978;6.296;2024-01-16T08:25:36;1.90;99.90
49441;DHT22;35317;51.978;6.296;2024-01-16T08:30:36;1.90;99.90
49441;DHT22;35317;51.978;6.296;2024-01-16T08:35:37;2.00;99.90
49441;DHT22;35317;51.978;6.296;2024-01-16T08:40:38;2.00;99.90
49441;DHT22;35317;51.978;6.296;2024-01-16T08:45:40;2.10;99.90
49441;DHT22;35317;51.978;6.296;2024-01-16T08:50:41;2.10;99.90
49441;DHT22;35317;51.978;6.296;2024-01-16T08:55:41;2.10;99.90
49441;DHT22;35317;51.978;6.296;2024-01-16T09:00:42;2.10;99.90
49441;DHT22;35317;51.978;6.296;2024-01-16T09:05:43;2.10;99.90
49441;DHT22;35317;51.978;6.296;2024-01-16T09:10:44;2.10;99.90
49441;DHT22;35317;51.978;6.296;2024-01-16T09:15:44;2.10;99.90
49441;DHT22;35317;51.978;6.296;2024-01-16T09:20:47;2.10;99.90
49441;DHT22;35317;51.978;6.296;2024-01-16T09:25:49;2.10;99.90
49441;DHT22;35317;51.978;6.296;2024-01-16T09:30:50;2.10;99.90
49441;DHT22;35317;51.978;6.296;2024-01-16T09:35:52;2.10;99.90
49441;DHT22;35317;51.978;6.296;2024-01-16T09:40:53;2.10;99.90
49441;DHT22;35317;51.978;6.296;2024-01-16T09:46:00;2.20;99.90
49441;DHT22;35317;51.978;6.296;2024-01-16T09:51:02;2.20;99.90
49441;DHT22;35317;51.978;6.296;2024-01-16T09:56:04;2.20;99.90
49441;DHT22;35317;51.978;6.296;2024-01-16T10:01:11;2.20;99.90
49441;DHT22;35317;51.978;6.296;2024-01-16T10:06:14;2.20;99.90
49441;DHT22;35317;51.978;6.296;2024-01-16T10:11:15;2.30;99.90
49441;DHT22;35317;51.978;6.296;2024-01-16T10:16:16;2.30;99.90
49441;DHT22;35317;51.978;6.296;2024-01-16T10:21:21;2.40;99.90
49441;DHT22;35317;51.978;6.296;2024-01-16T10:26:22;2.50;99.90
49441;DHT22;35317;51.978;6.296;2024-01-16T10:31:29;2.60;99.90
49441;DHT22;35317;51.978;6.296;2024-01-16T10:36:30;2.70;99.90
49441;DHT22;35317;51.978;6.296;2024-01-16T10:41:32;2.70;99.90
49441;DHT22;35317;51.978;6.296;2024-01-16T10:46:33;2.70;99.90
49441;DHT22;35317;51.978;6.296;2024-01-16T10:51:34;2.70;99.90
49441;DHT22;35317;51.978;6.296;2024-01-16T10:56:35;2.70;99.90
49441;DHT22;35317;51.978;6.296;2024-01-16T11:01:37;2.70;99.90
49441;DHT22;35317;51.978;6.296;2024-01-16T11:06:40;2.70;99.90
49441;DHT22;35317;51.978;6.296;2024-01-16T11:11:43;2.60;99.90
49441;DHT22;35317;51.978;6.296;2024-01-16T11:16:46;2.60;99.90
49441;DHT22;35317;51.978;6.296;2024-01-16T11:21:48;2.70;99.90
49441;DHT22;35317;51.978;6.296;2024-01-16T11:26:49;2.80;99.90
49441;DHT22;35317;51.978;6.296;2024-01-16T11:31:50;2.90;99.90
49441;DHT22;35317;51.978;6.296;2024-01-16T11:36:52;3.00;99.90
49441;DHT22;35317;51.978;6.296;2024-01-16T11:41:55;3.20;99.90
49441;DHT22;35317;51.978;6.296;2024-01-16T11:47:01;3.20;99.90
49441;DHT22;35317;51.978;6.296;2024-01-16T11:52:03;3.40;99.90
49441;DHT22;35317;51.978;6.296;2024-01-16T12:02:29;3.70;99.90
49441;DHT22;35317;51.978;6.296;2024-01-16T12:07:51;3.80;99.90
49441;DHT22;35317;51.978;6.296;2024-01-16T12:12:58;3.90;99.90
49441;DHT22;35317;51.978;6.296;2024-01-16T12:18:02;3.90;99.90
49441;DHT22;35317;51.978;6.296;2024-01-16T12:23:07;4.00;99.90
49441;DHT22;35317;51.978;6.296;2024-01-16T12:28:08;4.00;99.90
49441;DHT22;35317;51.978;6.296;2024-01-16T12:33:14;4.00;99.90
49441;DHT22;35317;51.978;6.296;2024-01-16T12:38:15;4.10;99.90
49441;DHT22;35317;51.978;6.296;2024-01-16T12:43:20;4.10;99.90
49441;DHT22;35317;51.978;6.296;2024-01-16T12:48:25;4.20;99.90
49441;DHT22;35317;51.978;6.296;2024-01-16T12:53:26;4.20;99.90
49441;DHT22;35317;51.978;6.296;2024-01-16T12:58:32;4.30;99.90
49441;DHT22;35317;51.978;6.296;2024-01-16T13:03:37;4.20;99.90
49441;DHT22;35317;51.978;6.296;2024-01-16T13:08:37;4.00;99.90
49441;DHT22;35317;51.978;6.296;2024-01-16T13:13:38;3.90;99.90
49441;DHT22;35317;51.978;6.296;2024-01-16T13:18:39;3.90;99.90
49441;DHT22;35317;51.978;6.296;2024-01-16T13:23:40;3.80;99.90
49441;DHT22;35317;51.978;6.296;2024-01-16T13:28:40;3.80;99.90
49441;DHT22;35317;51.978;6.296;2024-01-16T13:33:41;3.90;99.90
49441;DHT22;35317;51.978;6.296;2024-01-16T13:38:43;4.10;99.90
49441;DHT22;35317;51.978;6.296;2024-01-16T13:43:47;4.40;99.90
49441;DHT22;35317;51.978;6.296;2024-01-16T13:48:50;4.80;99.90
49441;DHT22;35317;51.978;6.296;2024-01-16T13:53:51;5.30;99.90
49441;DHT22;35317;51.978;6.296;2024-01-16T13:58:51;5.50;99.90
49441;DHT22;35317;51.978;6.296;2024-01-16T14:03:52;5.60;99.90
49441;DHT22;35317;51.978;6.296;2024-01-16T14:08:53;5.60;99.90
49441;DHT22;35317;51.978;6.296;2024-01-16T14:13:54;5.40;99.90
49441;DHT22;35317;51.978;6.296;2024-01-16T14:18:55;5.40;99.90
49441;DHT22;35317;51.978;6.296;2024-01-16T14:23:55;5.40;99.90
49441;DHT22;35317;51.978;6.296;2024-01-16T14:28:56;5.40;99.90
49441;DHT22;35317;51.978;6.296;2024-01-16T14:33:57;5.20;99.90
49441;DHT22;35317;51.978;6.296;2024-01-16T14:38:58;4.90;99.90
49441;DHT22;35317;51.978;6.296;2024-01-16T14:43:58;4.70;99.90
49441;DHT22;35317;51.978;6.296;2024-01-16T14:48:59;4.40;99.90
49441;DHT22;35317;51.978;6.296;2024-01-16T14:54:00;4.10;99.90
49441;DHT22;35317;51.978;6.296;2024-01-16T14:59:05;3.80;99.90
49441;DHT22;35317;51.978;6.296;2024-01-16T15:04:06;3.70;99.90
49441;DHT22;35317;51.978;6.296;2024-01-16T15:09:06;3.50;99.90
49441;DHT22;35317;51.978;6.296;2024-01-16T15:14:11;3.30;99.90
49441;DHT22;35317;51.978;6.296;2024-01-16T15:19:13;3.10;99.90
49441;DHT22;35317;51.978;6.296;2024-01-16T15:24:14;3.00;99.90
49441;DHT22;35317;51.978;6.296;2024-01-16T15:29:20;2.80;99.90
49441;DHT22;35317;51.978;6.296;2024-01-16T15:34:21;2.60;99.90
49441;DHT22;35317;51.978;6.296;2024-01-16T15:39:22;2.50;99.90
49441;DHT22;35317;51.978;6.296;2024-01-16T15:44:23;2.40;99.90
49441;DHT22;35317;51.978;6.296;2024-01-16T15:49:24;2.30;99.90
49441;DHT22;35317;51.978;6.296;2024-01-16T15:54:26;2.10;99.90
49441;DHT22;35317;51.978;6.296;2024-01-16T15:59:27;2.00;99.90
49441;DHT22;35317;51.978;6.296;2024-01-16T16:04:28;1.90;99.90
49441;DHT22;35317;51.978;6.296;2024-01-16T16:09:29;1.80;99.90
49441;DHT22;35317;51.978;6.296;2024-01-16T16:14:30;1.70;99.90
49441;DHT22;35317;51.978;6.296;2024-01-16T16:19:35;1.60;99.90
49441;DHT22;35317;51.978;6.296;2024-01-16T16:24:36;1.50;99.90
49441;DHT22;35317;51.978;6.296;2024-01-16T16:29:37;1.40;99.90
49441;DHT22;35317;51.978;6.296;2024-01-16T16:34:38;1.40;99.90
49441;DHT22;35317;51.978;6.296;2024-01-16T16:39:39;1.30;99.90
49441;DHT22;35317;51.978;6.296;2024-01-16T16:44:40;1.30;99.90
49441;DHT22;35317;51.978;6.296;2024-01-16T16:49:41;1.20;99.90
49441;DHT22;35317;51.978;6.296;2024-01-16T16:54:41;1.20;99.90
49441;DHT22;35317;51.978;6.296;2024-01-16T16:59:46;1.10;99.90
49441;DHT22;35317;51.978;6.296;2024-01-16T17:04:47;1.00;99.90
49441;DHT22;35317;51.978;6.296;2024-01-16T17:09:47;1.00;99.90
49441;DHT22;35317;51.978;6.296;2024-01-16T17:14:48;0.90;99.90
49441;DHT22;35317;51.978;6.296;2024-01-16T17:19:52;0.80;99.90
49441;DHT22;35317;51.978;6.296;2024-01-16T17:24:52;0.80;99.90
49441;DHT22;35317;51.978;6.296;2024-01-16T17:29:53;0.90;99.90
49441;DHT22;35317;51.978;6.296;2024-01-16T17:34:54;0.90;99.90
49441;DHT22;35317;51.978;6.296;2024-01-16T17:39:55;0.90;99.90
49441;DHT22;35317;51.978;6.296;2024-01-16T17:44:56;0.90;99.90
49441;DHT22;35317;51.978;6.296;2024-01-16T17:50:00;1.00;99.90
49441;DHT22;35317;51.978;6.296;2024-01-16T17:55:01;0.90;99.90
49441;DHT22;35317;51.978;6.296;2024-01-16T18:00:03;0.90;99.90
49441;DHT22;35317;51.978;6.296;2024-01-16T18:05:06;0.90;99.90
49441;DHT22;35317;51.978;6.296;2024-01-16T18:10:11;0.80;99.90
49441;DHT22;35317;51.978;6.296;2024-01-16T18:15:14;0.70;99.90
49441;DHT22;35317;51.978;6.296;2024-01-16T18:20:19;0.70;99.90
49441;DHT22;35317;51.978;6.296;2024-01-16T18:25:22;0.70;99.90
49441;DHT22;35317;51.978;6.296;2024-01-16T18:30:25;0.60;99.90
49441;DHT22;35317;51.978;6.296;2024-01-16T18:35:27;0.60;99.90
49441;DHT22;35317;51.978;6.296;2024-01-16T18:40:27;0.50;99.90
49441;DHT22;35317;51.978;6.296;2024-01-16T18:45:28;0.50;99.90
49441;DHT22;35317;51.978;6.296;2024-01-16T18:50:29;0.40;99.90
49441;DHT22;35317;51.978;6.296;2024-01-16T18:55:34;0.40;99.90
49441;DHT22;35317;51.978;6.296;2024-01-16T19:00:35;0.40;99.90
49441;DHT22;35317;51.978;6.296;2024-01-16T19:05:37;0.30;99.90
49441;DHT22;35317;51.978;6.296;2024-01-16T19:10:38;0.30;99.90
49441;DHT22;35317;51.978;6.296;2024-01-16T19:15:38;0.30;99.90
49441;DHT22;35317;51.978;6.296;2024-01-16T19:20:39;0.20;99.90
49441;DHT22;35317;51.978;6.296;2024-01-16T19:25:40;0.20;99.90
49441;DHT22;35317;51.978;6.296;2024-01-16T19:30:41;0.20;99.90
49441;DHT22;35317;51.978;6.296;2024-01-16T19:35:41;0.20;99.90
49441;DHT22;35317;51.978;6.296;2024-01-16T19:40:42;0.20;99.90
49441;DHT22;35317;51.978;6.296;2024-01-16T19:45:43;0.30;99.90
49441;DHT22;35317;51.978;6.296;2024-01-16T19:50:47;0.30;99.90
49441;DHT22;35317;51.978;6.296;2024-01-16T19:55:49;0.20;99.90
49441;DHT22;35317;51.978;6.296;2024-01-16T20:00:51;0.20;99.90
49441;DHT22;35317;51.978;6.296;2024-01-16T20:05:52;0.20;99.90
49441;DHT22;35317;51.978;6.296;2024-01-16T20:10:52;0.20;99.90
49441;DHT22;35317;51.978;6.296;2024-01-16T20:15:53;0.10;99.90
49441;DHT22;35317;51.978;6.296;2024-01-16T20:20:54;0.10;99.90
49441;DHT22;35317;51.978;6.296;2024-01-16T20:25:55;0.10;99.90
49441;DHT22;35317;51.978;6.296;2024-01-16T20:30:56;0.00;99.90
49441;DHT22;35317;51.978;6.296;2024-01-16T20:35:57;0.00;99.90
49441;DHT22;35317;51.978;6.296;2024-01-16T20:40:57;-0.10;99.90
49441;DHT22;35317;51.978;6.296;2024-01-16T20:45:58;-0.10;99.90
49441;DHT22;35317;51.978;6.296;2024-01-16T20:51:03;-0.20;99.90
49441;DHT22;35317;51.978;6.296;2024-01-16T20:56:05;-0.20;99.90
49441;DHT22;35317;51.978;6.296;2024-01-16T21:01:06;-0.20;99.90
49441;DHT22;35317;51.978;6.296;2024-01-16T21:06:07;-0.30;99.90
49441;DHT22;35317;51.978;6.296;2024-01-16T21:11:08;-0.30;99.90
49441;DHT22;35317;51.978;6.296;2024-01-16T21:16:09;-0.40;99.90
49441;DHT22;35317;51.978;6.296;2024-01-16T21:21:12;-0.40;99.90
49441;DHT22;35317;51.978;6.296;2024-01-16T21:26:13;-0.40;99.90
49441;DHT22;35317;51.978;6.296;2024-01-16T21:31:14;-0.50;99.90
49441;DHT22;35317;51.978;6.296;2024-01-16T21:36:15;-0.50;99.90
49441;DHT22;35317;51.978;6.296;2024-01-16T21:41:16;-0.50;99.90
49441;DHT22;35317;51.978;6.296;2024-01-16T21:46:17;-0.50;99.90
49441;DHT22;35317;51.978;6.296;2024-01-16T21:51:18;-0.60;99.90
49441;DHT22;35317;51.978;6.296;2024-01-16T21:56:20;-0.60;99.90
49441;DHT22;35317;51.978;6.296;2024-01-16T22:01:21;-0.60;99.90
49441;DHT22;35317;51.978;6.296;2024-01-16T22:06:21;-0.60;99.90
49441;DHT22;35317;51.978;6.296;2024-01-16T22:11:23;-0.60;99.90
49441;DHT22;35317;51.978;6.296;2024-01-16T22:16:23;-0.60;99.90
49441;DHT22;35317;51.978;6.296;2024-01-16T22:21:26;-0.60;99.90
49441;DHT22;35317;51.978;6.296;2024-01-16T22:26:27;-0.60;99.90
49441;DHT22;35317;51.978;6.296;2024-01-16T22:31:28;-0.70;99.90
49441;DHT22;35317;51.978;6.296;2024-01-16T22:36:29;-0.80;99.90
49441;DHT22;35317;51.978;6.296;2024-01-16T22:55:55;-0.90;99.90
49441;DHT22;35317;51.978;6.296;2024-01-16T23:00:56;-0.90;99.90
49441;DHT22;35317;51.978;6.296;2024-01-16T23:06:01;-0.90;99.90
49441;DHT22;35317;51.978;6.296;2024-01-16T23:11:02;-0.90;99.90
49441;DHT22;35317;51.978;6.296;2024-01-16T23:16:04;-0.90;99.90
49441;DHT22;35317;51.978;6.296;2024-01-16T23:21:09;-0.80;99.90
49441;DHT22;35317;51.978;6.296;2024-01-16T23:26:12;-0.80;99.90
49441;DHT22;35317;51.978;6.296;2024-01-16T23:31:13;-0.80;99.90
49441;DHT22;35317;51.978;6.296;2024-01-16T23:36:16;-0.90;99.90
49441;DHT22;35317;51.978;6.296;2024-01-16T23:41:28;-0.90;99.90
49441;DHT22;35317;51.978;6.296;2024-01-16T23:47:47;-0.90;99.90
49441;DHT22;35317;51.978;6.296;2024-01-16T23:52:55;-0.90;99.90
